sensor_id;sensor_type;location;lat;lon;timestamp;pressure;altitude;pressure_sealevel;temperature;humidity
10720;BME280;5411;58.386;15.560;2023-04-02T00:01:46;101115.56;;;-0.93;79.31
10720;BME280;5411;58.386;15.560;2023-04-02T00:04:18;101116.66;;;-0.95;79.22
10720;BME280;5411;58.386;15.560;2023-04-02T00:06:50;101117.72;;;-0.98;78.45
10720;BME280;5411;58.386;15.560;2023-04-02T00:09:38;101116.97;;;-1.00;79.29
10720;BME280;5411;58.386;15.560;2023-04-02T00:12:16;101125.91;;;-1.02;78.50
10720;BME280;5411;58.386;15.560;2023-04-02T00:14:46;101129.47;;;-1.03;78.44
10720;BME280;5411;58.386;15.560;2023-04-02T00:17:15;101133.16;;;-1.06;78.36
10720;BME280;5411;58.386;15.560;2023-04-02T00:19:50;101124.56;;;-1.08;78.96
10720;BME280;5411;58.386;15.560;2023-04-02T00:22:23;101138.75;;;-1.11;78.58
10720;BME280;5411;58.386;15.560;2023-04-02T00:24:53;101133.50;;;-1.11;78.45
10720;BME280;5411;58.386;15.560;2023-04-02T00:27:22;101137.19;;;-1.13;78.78
10720;BME280;5411;58.386;15.560;2023-04-02T00:29:53;101138.97;;;-1.14;78.01
10720;BME280;5411;58.386;15.560;2023-04-02T00:32:26;101148.63;;;-1.14;78.08
10720;BME280;5411;58.386;15.560;2023-04-02T00:34:56;101150.50;;;-1.16;78.36
10720;BME280;5411;58.386;15.560;2023-04-02T00:37:32;101146.22;;;-1.17;78.11
10720;BME280;5411;58.386;15.560;2023-04-02T00:40:08;101154.91;;;-1.17;78.59
10720;BME280;5411;58.386;15.560;2023-04-02T00:42:47;101157.75;;;-1.20;79.28
10720;BME280;5411;58.386;15.560;2023-04-02T00:45:22;101164.09;;;-1.22;79.45
10720;BME280;5411;58.386;15.560;2023-04-02T00:47:53;101165.97;;;-1.24;80.03
10720;BME280;5411;58.386;15.560;2023-04-02T00:50:27;101171.53;;;-1.29;79.97
10720;BME280;5411;58.386;15.560;2023-04-02T00:52:58;101176.97;;;-1.32;79.97
10720;BME280;5411;58.386;15.560;2023-04-02T00:55:34;101184.25;;;-1.35;79.69
10720;BME280;5411;58.386;15.560;2023-04-02T00:58:04;101181.94;;;-1.40;79.30
10720;BME280;5411;58.386;15.560;2023-04-02T01:00:48;101170.69;;;-1.42;79.05
10720;BME280;5411;58.386;15.560;2023-04-02T01:03:28;101184.75;;;-1.43;79.64
10720;BME280;5411;58.386;15.560;2023-04-02T01:06:05;101194.53;;;-1.45;79.73
10720;BME280;5411;58.386;15.560;2023-04-02T01:08:51;101194.66;;;-1.47;79.64
10720;BME280;5411;58.386;15.560;2023-04-02T01:11:31;101197.38;;;-1.48;79.71
10720;BME280;5411;58.386;15.560;2023-04-02T01:14:10;101200.84;;;-1.48;79.76
10720;BME280;5411;58.386;15.560;2023-04-02T01:16:49;101206.09;;;-1.48;79.98
10720;BME280;5411;58.386;15.560;2023-04-02T01:19:48;101201.88;;;-1.50;79.94
10720;BME280;5411;58.386;15.560;2023-04-02T01:22:25;101200.22;;;-1.51;80.24
10720;BME280;5411;58.386;15.560;2023-04-02T01:25:01;101206.41;;;-1.52;79.72
10720;BME280;5411;58.386;15.560;2023-04-02T01:27:40;101197.78;;;-1.54;80.32
10720;BME280;5411;58.386;15.560;2023-04-02T01:30:15;101206.69;;;-1.57;80.25
10720;BME280;5411;58.386;15.560;2023-04-02T01:32:44;101213.81;;;-1.59;80.31
10720;BME280;5411;58.386;15.560;2023-04-02T01:35:13;101215.75;;;-1.61;80.44
10720;BME280;5411;58.386;15.560;2023-04-02T01:37:49;101222.03;;;-1.63;80.73
10720;BME280;5411;58.386;15.560;2023-04-02T01:40:31;101221.38;;;-1.67;80.74
10720;BME280;5411;58.386;15.560;2023-04-02T01:43:09;101229.44;;;-1.70;81.03
10720;BME280;5411;58.386;15.560;2023-04-02T01:45:43;101239.19;;;-1.72;81.34
10720;BME280;5411;58.386;15.560;2023-04-02T01:48:14;101230.72;;;-1.75;81.27
10720;BME280;5411;58.386;15.560;2023-04-02T01:50:44;101237.84;;;-1.77;81.50
10720;BME280;5411;58.386;15.560;2023-04-02T01:53:17;101243.19;;;-1.79;81.71
10720;BME280;5411;58.386;15.560;2023-04-02T01:55:48;101244.13;;;-1.80;81.59
10720;BME280;5411;58.386;15.560;2023-04-02T01:58:20;101245.91;;;-1.81;81.89
10720;BME280;5411;58.386;15.560;2023-04-02T02:00:54;101241.50;;;-1.80;82.01
10720;BME280;5411;58.386;15.560;2023-04-02T02:03:25;101248.63;;;-1.82;82.18
10720;BME280;5411;58.386;15.560;2023-04-02T02:05:54;101251.16;;;-1.81;81.27
10720;BME280;5411;58.386;15.560;2023-04-02T02:08:31;101261.63;;;-1.81;81.96
10720;BME280;5411;58.386;15.560;2023-04-02T02:11:02;101257.25;;;-1.80;81.31
10720;BME280;5411;58.386;15.560;2023-04-02T02:13:30;101265.00;;;-1.78;81.63
10720;BME280;5411;58.386;15.560;2023-04-02T02:16:00;101272.88;;;-1.78;81.60
10720;BME280;5411;58.386;15.560;2023-04-02T02:18:30;101274.66;;;-1.79;81.79
10720;BME280;5411;58.386;15.560;2023-04-02T02:21:00;101268.84;;;-1.84;81.65
10720;BME280;5411;58.386;15.560;2023-04-02T02:23:32;101279.81;;;-1.77;81.33
10720;BME280;5411;58.386;15.560;2023-04-02T02:26:00;101272.97;;;-1.80;81.47
10720;BME280;5411;58.386;15.560;2023-04-02T02:28:30;101275.59;;;-1.80;81.18
10720;BME280;5411;58.386;15.560;2023-04-02T02:31:05;101279.16;;;-1.81;81.29
10720;BME280;5411;58.386;15.560;2023-04-02T02:33:38;101278.22;;;-1.80;81.05
10720;BME280;5411;58.386;15.560;2023-04-02T02:36:13;101284.50;;;-1.83;81.34
10720;BME280;5411;58.386;15.560;2023-04-02T02:38:48;101292.38;;;-1.83;81.46
10720;BME280;5411;58.386;15.560;2023-04-02T02:41:32;101294.25;;;-1.85;81.44
10720;BME280;5411;58.386;15.560;2023-04-02T02:44:08;101296.03;;;-1.85;81.39
10720;BME280;5411;58.386;15.560;2023-04-02T02:46:44;101303.16;;;-1.87;81.49
10720;BME280;5411;58.386;15.560;2023-04-02T02:49:17;101300.66;;;-1.89;81.58
10720;BME280;5411;58.386;15.560;2023-04-02T02:51:52;101308.81;;;-1.93;81.69
10720;BME280;5411;58.386;15.560;2023-04-02T02:54:24;101309.66;;;-1.93;81.56
10720;BME280;5411;58.386;15.560;2023-04-02T02:56:58;101315.72;;;-1.92;81.73
10720;BME280;5411;58.386;15.560;2023-04-02T02:59:28;101318.44;;;-1.94;81.54
10720;BME280;5411;58.386;15.560;2023-04-02T03:01:59;101324.63;;;-1.95;82.23
10720;BME280;5411;58.386;15.560;2023-04-02T03:04:28;101330.81;;;-1.96;81.63
10720;BME280;5411;58.386;15.560;2023-04-02T03:07:02;101335.13;;;-1.95;81.78
10720;BME280;5411;58.386;15.560;2023-04-02T03:09:37;101330.81;;;-1.96;81.58
10720;BME280;5411;58.386;15.560;2023-04-02T03:12:37;101332.91;;;-2.01;81.41
10720;BME280;5411;58.386;15.560;2023-04-02T03:15:19;101335.94;;;-1.94;81.92
10720;BME280;5411;58.386;15.560;2023-04-02T03:17:56;101356.94;;;-1.94;80.75
10720;BME280;5411;58.386;15.560;2023-04-02T03:20:32;101349.06;;;-1.94;80.96
10720;BME280;5411;58.386;15.560;2023-04-02T03:23:13;101354.31;;;-1.94;81.42
10720;BME280;5411;58.386;15.560;2023-04-02T03:25:50;101355.25;;;-1.95;81.56
10720;BME280;5411;58.386;15.560;2023-04-02T03:28:25;101357.03;;;-1.96;81.38
10720;BME280;5411;58.386;15.560;2023-04-02T03:30:58;101365.72;;;-1.95;81.06
10720;BME280;5411;58.386;15.560;2023-04-02T03:33:32;101371.16;;;-1.98;80.87
10720;BME280;5411;58.386;15.560;2023-04-02T03:36:04;101370.53;;;-2.02;80.75
10720;BME280;5411;58.386;15.560;2023-04-02T03:38:44;101367.34;;;-2.07;81.35
10720;BME280;5411;58.386;15.560;2023-04-02T03:41:16;101369.22;;;-2.09;81.41
10720;BME280;5411;58.386;15.560;2023-04-02T03:43:49;101385.97;;;-2.11;81.61
10720;BME280;5411;58.386;15.560;2023-04-02T03:46:26;101385.25;;;-2.13;81.82
10720;BME280;5411;58.386;15.560;2023-04-02T03:49:01;101387.22;;;-2.17;81.94
10720;BME280;5411;58.386;15.560;2023-04-02T03:51:33;101383.94;;;-2.21;81.82
10720;BME280;5411;58.386;15.560;2023-04-02T03:54:04;101394.44;;;-2.21;81.99
10720;BME280;5411;58.386;15.560;2023-04-02T03:56:35;101402.38;;;-2.22;81.67
10720;BME280;5411;58.386;15.560;2023-04-02T03:59:19;101396.38;;;-2.24;81.65
10720;BME280;5411;58.386;15.560;2023-04-02T04:01:58;101411.47;;;-2.28;81.91
10720;BME280;5411;58.386;15.560;2023-04-02T04:04:30;101408.09;;;-2.30;81.26
10720;BME280;5411;58.386;15.560;2023-04-02T04:07:00;101410.72;;;-2.30;81.94
10720;BME280;5411;58.386;15.560;2023-04-02T04:09:31;101416.91;;;-2.31;82.02
10720;BME280;5411;58.386;15.560;2023-04-02T04:12:11;101426.53;;;-2.31;82.13
10720;BME280;5411;58.386;15.560;2023-04-02T04:14:50;101437.03;;;-2.31;82.04
10720;BME280;5411;58.386;15.560;2023-04-02T04:17:24;101439.66;;;-2.31;82.31
10720;BME280;5411;58.386;15.560;2023-04-02T04:20:02;101440.56;;;-2.32;82.56
10720;BME280;5411;58.386;15.560;2023-04-02T04:22:35;101449.28;;;-2.32;82.39
10720;BME280;5411;58.386;15.560;2023-04-02T04:25:05;101447.59;;;-2.33;82.50
10720;BME280;5411;58.386;15.560;2023-04-02T04:27:39;101451.81;;;-2.30;82.72
10720;BME280;5411;58.386;15.560;2023-04-02T04:30:18;101452.75;;;-2.31;82.77
10720;BME280;5411;58.386;15.560;2023-04-02T04:32:55;101455.28;;;-2.30;82.83
10720;BME280;5411;58.386;15.560;2023-04-02T04:35:30;101466.50;;;-2.28;82.60
10720;BME280;5411;58.386;15.560;2023-04-02T04:38:03;101470.59;;;-2.24;82.87
10720;BME280;5411;58.386;15.560;2023-04-02T04:40:35;101469.59;;;-2.21;82.20
10720;BME280;5411;58.386;15.560;2023-04-02T04:43:06;101469.50;;;-2.20;82.11
10720;BME280;5411;58.386;15.560;2023-04-02T04:45:41;101477.09;;;-2.15;81.89
10720;BME280;5411;58.386;15.560;2023-04-02T04:48:16;101476.03;;;-2.12;81.85
10720;BME280;5411;58.386;15.560;2023-04-02T04:50:52;101489.63;;;-2.06;81.42
10720;BME280;5411;58.386;15.560;2023-04-02T04:53:23;101491.13;;;-2.02;81.04
10720;BME280;5411;58.386;15.560;2023-04-02T04:55:53;101497.84;;;-1.98;81.45
10720;BME280;5411;58.386;15.560;2023-04-02T04:58:32;101501.03;;;-1.93;80.58
10720;BME280;5411;58.386;15.560;2023-04-02T05:01:04;101500.84;;;-1.90;80.46
10720;BME280;5411;58.386;15.560;2023-04-02T05:03:38;101509.06;;;-1.82;79.98
10720;BME280;5411;58.386;15.560;2023-04-02T05:06:17;101513.03;;;-1.74;79.71
10720;BME280;5411;58.386;15.560;2023-04-02T05:08:48;101524.06;;;-1.69;79.54
10720;BME280;5411;58.386;15.560;2023-04-02T05:11:22;101528.25;;;-1.67;79.69
10720;BME280;5411;58.386;15.560;2023-04-02T05:13:56;101533.88;;;-1.59;79.10
10720;BME280;5411;58.386;15.560;2023-04-02T05:16:31;101533.50;;;-1.53;78.92
10720;BME280;5411;58.386;15.560;2023-04-02T05:19:07;101541.63;;;-1.43;78.84
10720;BME280;5411;58.386;15.560;2023-04-02T05:21:42;101537.03;;;-1.39;77.74
10720;BME280;5411;58.386;15.560;2023-04-02T05:24:42;101552.09;;;-1.29;77.64
10720;BME280;5411;58.386;15.560;2023-04-02T05:27:22;101559.38;;;-1.20;77.13
10720;BME280;5411;58.386;15.560;2023-04-02T05:30:08;101558.91;;;-1.12;76.15
10720;BME280;5411;58.386;15.560;2023-04-02T05:32:42;101549.59;;;-1.03;76.05
10720;BME280;5411;58.386;15.560;2023-04-02T05:35:15;101567.41;;;-0.94;75.47
10720;BME280;5411;58.386;15.560;2023-04-02T05:37:46;101563.22;;;-0.84;74.58
10720;BME280;5411;58.386;15.560;2023-04-02T05:40:21;101566.94;;;-0.74;74.59
10720;BME280;5411;58.386;15.560;2023-04-02T05:42:50;101571.56;;;-0.65;73.08
10720;BME280;5411;58.386;15.560;2023-04-02T05:45:26;101573.50;;;-0.54;72.13
10720;BME280;5411;58.386;15.560;2023-04-02T05:48:00;101574.59;;;-0.44;72.39
10720;BME280;5411;58.386;15.560;2023-04-02T05:50:33;101587.09;;;-0.35;71.08
10720;BME280;5411;58.386;15.560;2023-04-02T05:53:09;101573.31;;;-0.26;70.88
10720;BME280;5411;58.386;15.560;2023-04-02T05:55:44;101576.94;;;-0.14;70.17
10720;BME280;5411;58.386;15.560;2023-04-02T05:58:24;101585.56;;;0.00;70.32
10720;BME280;5411;58.386;15.560;2023-04-02T06:01:01;101587.38;;;0.13;70.27
10720;BME280;5411;58.386;15.560;2023-04-02T06:03:41;101595.38;;;0.24;69.16
10720;BME280;5411;58.386;15.560;2023-04-02T06:06:17;101600.63;;;0.37;68.84
10720;BME280;5411;58.386;15.560;2023-04-02T06:08:54;101599.03;;;0.47;67.45
10720;BME280;5411;58.386;15.560;2023-04-02T06:11:27;101600.16;;;0.55;67.42
10720;BME280;5411;58.386;15.560;2023-04-02T06:13:57;101607.44;;;0.64;67.74
10720;BME280;5411;58.386;15.560;2023-04-02T06:16:28;101603.41;;;0.71;66.04
10720;BME280;5411;58.386;15.560;2023-04-02T06:18:57;101610.78;;;0.79;64.82
10720;BME280;5411;58.386;15.560;2023-04-02T06:21:26;101617.19;;;0.88;64.77
10720;BME280;5411;58.386;15.560;2023-04-02T06:23:58;101615.56;;;0.98;65.30
10720;BME280;5411;58.386;15.560;2023-04-02T06:26:32;101621.13;;;1.06;64.40
10720;BME280;5411;58.386;15.560;2023-04-02T06:29:04;101618.03;;;1.12;63.90
10720;BME280;5411;58.386;15.560;2023-04-02T06:31:39;101630.53;;;1.21;64.86
10720;BME280;5411;58.386;15.560;2023-04-02T06:34:14;101634.53;;;1.27;63.13
10720;BME280;5411;58.386;15.560;2023-04-02T06:36:43;101635.28;;;1.29;62.71
10720;BME280;5411;58.386;15.560;2023-04-02T06:39:17;101641.03;;;1.34;62.47
10720;BME280;5411;58.386;15.560;2023-04-02T06:41:46;101647.03;;;1.36;61.84
10720;BME280;5411;58.386;15.560;2023-04-02T06:44:21;101655.16;;;1.46;62.20
10720;BME280;5411;58.386;15.560;2023-04-02T06:46:57;101655.69;;;1.62;62.14
10720;BME280;5411;58.386;15.560;2023-04-02T06:49:31;101651.66;;;1.69;61.59
10720;BME280;5411;58.386;15.560;2023-04-02T06:52:03;101656.13;;;1.79;60.81
10720;BME280;5411;58.386;15.560;2023-04-02T06:54:33;101655.78;;;1.84;61.16
10720;BME280;5411;58.386;15.560;2023-04-02T06:57:03;101662.28;;;1.91;60.10
10720;BME280;5411;58.386;15.560;2023-04-02T06:59:33;101664.09;;;2.02;58.96
10720;BME280;5411;58.386;15.560;2023-04-02T07:02:03;101672.31;;;2.10;59.10
10720;BME280;5411;58.386;15.560;2023-04-02T07:04:32;101668.00;;;2.20;58.29
10720;BME280;5411;58.386;15.560;2023-04-02T07:07:01;101674.25;;;2.30;58.63
10720;BME280;5411;58.386;15.560;2023-04-02T07:09:29;101668.31;;;2.39;57.26
10720;BME280;5411;58.386;15.560;2023-04-02T07:12:10;101679.22;;;2.46;57.05
10720;BME280;5411;58.386;15.560;2023-04-02T07:14:38;101683.66;;;2.45;56.17
10720;BME280;5411;58.386;15.560;2023-04-02T07:17:08;101687.75;;;2.49;56.29
10720;BME280;5411;58.386;15.560;2023-04-02T07:19:54;101696.53;;;2.61;55.71
10720;BME280;5411;58.386;15.560;2023-04-02T07:22:32;101698.00;;;2.65;55.63
10720;BME280;5411;58.386;15.560;2023-04-02T07:25:01;101705.19;;;2.74;55.75
10720;BME280;5411;58.386;15.560;2023-04-02T07:27:30;101710.59;;;2.73;54.73
10720;BME280;5411;58.386;15.560;2023-04-02T07:29:58;101714.56;;;2.78;54.59
10720;BME280;5411;58.386;15.560;2023-04-02T07:32:28;101714.56;;;2.90;54.87
10720;BME280;5411;58.386;15.560;2023-04-02T07:34:56;101717.72;;;3.06;54.44
10720;BME280;5411;58.386;15.560;2023-04-02T07:37:24;101717.81;;;3.15;53.09
10720;BME280;5411;58.386;15.560;2023-04-02T07:39:52;101725.03;;;3.13;51.46
10720;BME280;5411;58.386;15.560;2023-04-02T07:42:20;101727.66;;;3.13;51.34
10720;BME280;5411;58.386;15.560;2023-04-02T07:44:50;101728.97;;;3.08;51.11
10720;BME280;5411;58.386;15.560;2023-04-02T07:47:21;101734.25;;;3.08;51.49
10720;BME280;5411;58.386;15.560;2023-04-02T07:49:49;101740.50;;;3.07;50.50
10720;BME280;5411;58.386;15.560;2023-04-02T07:52:20;101736.91;;;3.08;51.54
10720;BME280;5411;58.386;15.560;2023-04-02T07:54:48;101743.28;;;3.16;50.82
10720;BME280;5411;58.386;15.560;2023-04-02T07:57:16;101737.50;;;3.22;50.88
10720;BME280;5411;58.386;15.560;2023-04-02T07:59:55;101743.63;;;3.34;50.84
10720;BME280;5411;58.386;15.560;2023-04-02T08:02:23;101745.69;;;3.42;49.64
10720;BME280;5411;58.386;15.560;2023-04-02T08:04:52;101749.03;;;3.44;49.67
10720;BME280;5411;58.386;15.560;2023-04-02T08:07:21;101759.00;;;3.51;50.15
10720;BME280;5411;58.386;15.560;2023-04-02T08:09:49;101754.91;;;3.47;48.73
10720;BME280;5411;58.386;15.560;2023-04-02T08:12:17;101759.00;;;3.51;48.93
10720;BME280;5411;58.386;15.560;2023-04-02T08:14:45;101774.63;;;3.54;47.64
10720;BME280;5411;58.386;15.560;2023-04-02T08:17:15;101766.94;;;3.51;48.08
10720;BME280;5411;58.386;15.560;2023-04-02T08:19:43;101771.16;;;3.54;47.95
10720;BME280;5411;58.386;15.560;2023-04-02T08:22:20;101772.44;;;3.59;47.26
10720;BME280;5411;58.386;15.560;2023-04-02T08:24:49;101771.72;;;3.69;47.99
10720;BME280;5411;58.386;15.560;2023-04-02T08:27:17;101772.19;;;3.74;47.47
10720;BME280;5411;58.386;15.560;2023-04-02T08:29:45;101775.91;;;3.82;47.50
10720;BME280;5411;58.386;15.560;2023-04-02T08:32:15;101782.50;;;3.88;46.53
10720;BME280;5411;58.386;15.560;2023-04-02T08:34:47;101780.44;;;3.91;46.77
10720;BME280;5411;58.386;15.560;2023-04-02T08:37:15;101785.47;;;4.06;46.23
10720;BME280;5411;58.386;15.560;2023-04-02T08:39:55;101795.78;;;4.20;45.75
10720;BME280;5411;58.386;15.560;2023-04-02T08:42:28;101780.97;;;4.17;45.96
10720;BME280;5411;58.386;15.560;2023-04-02T08:45:07;101794.16;;;4.28;46.41
10720;BME280;5411;58.386;15.560;2023-04-02T08:47:55;101799.56;;;4.38;44.93
10720;BME280;5411;58.386;15.560;2023-04-02T08:50:29;101802.06;;;4.40;45.36
10720;BME280;5411;58.386;15.560;2023-04-02T08:52:59;101803.25;;;4.47;44.58
10720;BME280;5411;58.386;15.560;2023-04-02T08:55:33;101802.09;;;4.60;45.12
10720;BME280;5411;58.386;15.560;2023-04-02T08:58:12;101804.06;;;4.79;44.66
10720;BME280;5411;58.386;15.560;2023-04-02T09:00:46;101807.06;;;4.95;43.76
10720;BME280;5411;58.386;15.560;2023-04-02T09:03:20;101805.88;;;5.09;44.18
10720;BME280;5411;58.386;15.560;2023-04-02T09:05:54;101804.69;;;5.23;43.58
10720;BME280;5411;58.386;15.560;2023-04-02T09:08:36;101813.41;;;5.34;42.46
10720;BME280;5411;58.386;15.560;2023-04-02T09:11:10;101814.22;;;5.25;41.13
10720;BME280;5411;58.386;15.560;2023-04-02T09:13:44;101813.50;;;5.23;41.17
10720;BME280;5411;58.386;15.560;2023-04-02T09:16:16;101822.13;;;5.16;40.93
10720;BME280;5411;58.386;15.560;2023-04-02T09:18:51;101824.09;;;5.23;40.71
10720;BME280;5411;58.386;15.560;2023-04-02T09:21:39;101826.03;;;5.21;40.01
10720;BME280;5411;58.386;15.560;2023-04-02T09:24:10;101831.75;;;5.17;39.45
10720;BME280;5411;58.386;15.560;2023-04-02T09:26:39;101836.75;;;5.10;39.89
10720;BME280;5411;58.386;15.560;2023-04-02T09:32:39;101852.66;;;5.31;40.56
10720;BME280;5411;58.386;15.560;2023-04-02T09:35:15;101850.69;;;5.33;40.18
10720;BME280;5411;58.386;15.560;2023-04-02T09:38:17;101857.66;;;5.34;39.60
10720;BME280;5411;58.386;15.560;2023-04-02T09:41:07;101854.63;;;5.38;40.21
10720;BME280;5411;58.386;15.560;2023-04-02T09:43:45;101852.00;;;5.48;40.46
10720;BME280;5411;58.386;15.560;2023-04-02T09:46:17;101863.66;;;5.57;39.70
10720;BME280;5411;58.386;15.560;2023-04-02T09:48:52;101860.06;;;5.67;39.73
10720;BME280;5411;58.386;15.560;2023-04-02T09:51:27;101872.56;;;5.86;40.05
10720;BME280;5411;58.386;15.560;2023-04-02T09:54:06;101873.19;;;5.90;39.43
10720;BME280;5411;58.386;15.560;2023-04-02T09:56:37;101872.22;;;6.00;38.65
10720;BME280;5411;58.386;15.560;2023-04-02T09:59:13;101876.44;;;6.03;40.37
10720;BME280;5411;58.386;15.560;2023-04-02T10:01:43;101878.81;;;6.06;37.71
10720;BME280;5411;58.386;15.560;2023-04-02T10:04:33;101874.50;;;6.15;38.31
10720;BME280;5411;58.386;15.560;2023-04-02T10:07:04;101887.00;;;6.33;38.68
10720;BME280;5411;58.386;15.560;2023-04-02T10:09:37;101879.47;;;6.48;38.83
10720;BME280;5411;58.386;15.560;2023-04-02T10:12:12;101884.22;;;6.64;38.34
10720;BME280;5411;58.386;15.560;2023-04-02T10:14:43;101879.31;;;6.69;37.00
10720;BME280;5411;58.386;15.560;2023-04-02T10:17:18;101891.91;;;6.67;37.88
10720;BME280;5411;58.386;15.560;2023-04-02T10:19:49;101884.63;;;6.69;37.88
10720;BME280;5411;58.386;15.560;2023-04-02T10:22:22;101893.88;;;6.74;37.52
10720;BME280;5411;58.386;15.560;2023-04-02T10:24:50;101891.78;;;6.78;36.95
10720;BME280;5411;58.386;15.560;2023-04-02T10:27:23;101891.78;;;6.78;37.19
10720;BME280;5411;58.386;15.560;2023-04-02T10:30:08;101903.41;;;6.77;36.30
10720;BME280;5411;58.386;15.560;2023-04-02T10:32:42;101897.09;;;6.88;38.18
10720;BME280;5411;58.386;15.560;2023-04-02T10:35:22;101901.69;;;6.95;37.37
10720;BME280;5411;58.386;15.560;2023-04-02T10:40:45;101908.97;;;7.12;35.61
10720;BME280;5411;58.386;15.560;2023-04-02T10:43:43;101916.41;;;7.19;36.31
10720;BME280;5411;58.386;15.560;2023-04-02T10:46:19;101918.66;;;7.13;37.42
10720;BME280;5411;58.386;15.560;2023-04-02T10:49:00;101916.81;;;7.14;35.60
10720;BME280;5411;58.386;15.560;2023-04-02T10:51:36;101918.75;;;7.22;36.48
10720;BME280;5411;58.386;15.560;2023-04-02T10:54:18;101924.50;;;7.27;35.42
10720;BME280;5411;58.386;15.560;2023-04-02T10:56:57;101928.44;;;7.23;35.39
10720;BME280;5411;58.386;15.560;2023-04-02T10:59:30;101927.03;;;7.28;36.04
10720;BME280;5411;58.386;15.560;2023-04-02T11:02:09;101922.69;;;7.27;35.44
10720;BME280;5411;58.386;15.560;2023-04-02T11:04:44;101923.94;;;7.33;36.24
10720;BME280;5411;58.386;15.560;2023-04-02T11:07:16;101930.94;;;7.34;35.15
10720;BME280;5411;58.386;15.560;2023-04-02T11:09:51;101927.00;;;7.38;36.31
10720;BME280;5411;58.386;15.560;2023-04-02T11:12:23;101931.59;;;7.55;37.02
10720;BME280;5411;58.386;15.560;2023-04-02T11:14:54;101928.03;;;7.74;35.70
10720;BME280;5411;58.386;15.560;2023-04-02T11:17:23;101930.03;;;7.72;35.66
10720;BME280;5411;58.386;15.560;2023-04-02T11:19:52;101931.94;;;7.79;36.02
10720;BME280;5411;58.386;15.560;2023-04-02T11:22:22;101939.09;;;7.79;34.78
10720;BME280;5411;58.386;15.560;2023-04-02T11:24:54;101934.31;;;7.82;34.91
10720;BME280;5411;58.386;15.560;2023-04-02T11:27:35;101933.22;;;7.75;35.76
10720;BME280;5411;58.386;15.560;2023-04-02T11:30:06;;;;7.80;
10720;BME280;5411;58.386;15.560;2023-04-02T11:32:42;101933.06;;;7.77;35.09
10720;BME280;5411;58.386;15.560;2023-04-02T11:35:37;101940.13;;;7.68;35.36
